createdAt,value
2019-03-23T00:00:52.270Z,47.70
2019-03-23T00:03:19.776Z,48.04
2019-03-23T00:05:47.272Z,47.21
2019-03-23T00:08:14.705Z,47.71
2019-03-23T00:10:42.171Z,48.11
2019-03-23T00:13:09.644Z,48.43
2019-03-23T00:15:45.694Z,49.66
2019-03-23T00:18:13.158Z,48.87
2019-03-23T00:20:40.629Z,48.86
2019-03-23T00:23:08.085Z,49.65
2019-03-23T00:25:35.558Z,49.82
2019-03-23T00:28:03.032Z,50.60
2019-03-23T00:30:30.494Z,50.80
2019-03-23T00:32:57.978Z,51.08
2019-03-23T00:35:25.501Z,51.20
2019-03-23T00:37:52.997Z,51.83
2019-03-23T00:40:20.450Z,52.62
2019-03-23T00:42:47.932Z,53.25
2019-03-23T00:45:15.403Z,53.50
2019-03-23T00:47:42.874Z,54.28
2019-03-23T00:50:11.262Z,54.62
2019-03-23T00:52:38.771Z,54.92
2019-03-23T00:55:06.865Z,55.12
2019-03-23T00:57:34.343Z,56.48
2019-03-23T01:00:01.831Z,56.06
2019-03-23T01:02:29.284Z,56.63
2019-03-23T01:04:56.758Z,56.99
2019-03-23T01:07:24.224Z,56.87
2019-03-23T01:09:51.656Z,57.52
2019-03-23T01:12:19.127Z,57.61
2019-03-23T01:14:46.614Z,57.96
2019-03-23T01:17:14.081Z,58.22
2019-03-23T01:19:41.559Z,58.12
2019-03-23T01:22:09.039Z,58.25
2019-03-23T01:24:36.478Z,58.20
2019-03-23T01:27:03.942Z,58.44
2019-03-23T01:29:31.423Z,58.39
2019-03-23T01:31:58.906Z,58.16
2019-03-23T01:34:26.388Z,58.77
2019-03-23T01:37:02.523Z,59.75
2019-03-23T01:39:21.339Z,59.53
2019-03-23T01:41:48.833Z,60.58
2019-03-23T01:44:16.259Z,59.97
2019-03-23T01:46:43.743Z,60.01
2019-03-23T01:49:11.241Z,60.75
2019-03-23T01:51:38.744Z,62.09
2019-03-23T01:54:06.936Z,62.49
2019-03-23T01:56:34.413Z,61.79
2019-03-23T01:59:01.893Z,62.32
2019-03-23T02:01:29.370Z,63.09
2019-03-23T02:03:56.875Z,63.32
2019-03-23T02:06:24.341Z,64.36
2019-03-23T02:08:51.833Z,64.60
2019-03-23T02:11:19.273Z,65.50
2019-03-23T02:13:46.754Z,64.72
2019-03-23T02:16:14.218Z,65.40
2019-03-23T02:18:41.675Z,65.59
2019-03-23T02:21:09.163Z,65.48
2019-03-23T02:23:37.491Z,65.24
2019-03-23T02:26:06.004Z,66.56
2019-03-23T02:28:33.567Z,66.40
2019-03-23T02:31:01.027Z,68.57
2019-03-23T02:33:28.483Z,68.61
2019-03-23T02:35:55.983Z,67.89
2019-03-23T02:38:23.478Z,67.76
2019-03-23T02:40:50.928Z,68.76
2019-03-23T02:43:18.395Z,69.01
2019-03-23T02:45:45.879Z,69.53
2019-03-23T02:48:13.350Z,70.90
2019-03-23T02:50:40.838Z,71.71
2019-03-23T02:53:08.320Z,71.49
2019-03-23T02:55:35.788Z,72.22
2019-03-23T02:58:03.286Z,73.25
2019-03-23T03:00:30.759Z,72.70
2019-03-23T03:02:58.231Z,75.01
2019-03-23T03:05:25.714Z,74.77
2019-03-23T03:07:53.174Z,75.32
2019-03-23T03:10:35.534Z,74.55
2019-03-23T03:13:03.043Z,77.15
2019-03-23T03:15:30.494Z,77.17
2019-03-23T03:17:58.574Z,76.79
2019-03-23T03:20:26.038Z,77.49
2019-03-23T03:22:53.521Z,78.61
2019-03-23T03:25:21.013Z,75.24
2019-03-23T03:27:48.472Z,74.45
2019-03-23T03:30:15.924Z,72.12
2019-03-23T03:32:43.467Z,71.42
2019-03-23T03:35:10.938Z,73.82
2019-03-23T03:37:38.719Z,79.75
2019-03-23T03:40:06.187Z,79.39
2019-03-23T03:42:33.674Z,78.16
2019-03-23T03:45:01.168Z,77.89
2019-03-23T03:47:28.656Z,74.95
2019-03-23T03:49:56.106Z,73.90
2019-03-23T03:52:23.552Z,76.04
2019-03-23T03:54:51.058Z,77.98
2019-03-23T03:57:18.517Z,76.60
2019-03-23T03:59:45.987Z,78.50
2019-03-23T04:02:13.439Z,77.34
2019-03-23T04:04:40.898Z,78.44
2019-03-23T04:07:09.183Z,80.70
2019-03-23T04:09:36.641Z,80.42
2019-03-23T04:12:04.101Z,82.80
2019-03-23T04:14:31.540Z,81.05
2019-03-23T04:16:59.025Z,81.61
2019-03-23T04:19:26.472Z,81.39
2019-03-23T04:21:53.919Z,81.11
2019-03-23T04:24:21.343Z,81.17
2019-03-23T04:26:48.798Z,83.12
2019-03-23T04:29:16.265Z,81.92
2019-03-23T04:31:43.713Z,80.60
2019-03-23T04:34:12.039Z,80.42
2019-03-23T04:36:39.771Z,80.06
2019-03-23T04:39:07.213Z,82.42
2019-03-23T04:41:34.709Z,82.59
2019-03-23T04:44:02.173Z,82.45
2019-03-23T04:46:29.647Z,83.16
2019-03-23T04:48:57.123Z,81.51
2019-03-23T04:51:24.635Z,83.91
2019-03-23T04:53:52.071Z,83.49
2019-03-23T04:56:19.562Z,84.14
2019-03-23T04:58:47.038Z,84.94
2019-03-23T05:01:14.500Z,84.21
2019-03-23T05:03:41.967Z,86.38
2019-03-23T05:06:10.242Z,85.13
2019-03-23T05:08:38.773Z,84.71
2019-03-23T05:11:06.279Z,83.70
2019-03-23T05:13:33.731Z,84.33
2019-03-23T05:16:01.177Z,86.47
2019-03-23T05:18:28.625Z,85.84
2019-03-23T05:20:56.091Z,85.96
2019-03-23T05:23:23.541Z,86.25
2019-03-23T05:25:51.002Z,85.09
2019-03-23T05:28:18.453Z,84.50
2019-03-23T05:30:45.931Z,83.77
2019-03-23T05:33:13.366Z,82.94
2019-03-23T05:35:40.863Z,83.95
2019-03-23T05:38:08.327Z,85.52
2019-03-23T05:40:35.845Z,87.14
2019-03-23T05:43:03.351Z,87.21
2019-03-23T05:45:30.838Z,85.86
2019-03-23T05:47:58.331Z,84.41
2019-03-23T05:50:25.763Z,84.89
2019-03-23T05:52:53.221Z,85.25
2019-03-23T05:55:20.655Z,84.21
2019-03-23T05:57:48.142Z,84.26
2019-03-23T06:00:15.610Z,83.84
2019-03-23T06:02:43.102Z,85.84
2019-03-23T06:05:11.370Z,86.42
2019-03-23T06:07:38.835Z,87.97
2019-03-23T06:10:06.292Z,88.00
2019-03-23T06:12:33.759Z,86.96
2019-03-23T06:15:01.260Z,87.28
2019-03-23T06:17:28.723Z,87.95
2019-03-23T06:19:56.226Z,87.88
2019-03-23T06:22:23.665Z,89.55
2019-03-23T06:24:51.114Z,89.44
2019-03-23T06:27:18.581Z,88.08
2019-03-23T06:29:46.059Z,88.57
2019-03-23T06:32:13.515Z,88.44
2019-03-23T06:34:41.833Z,87.42
2019-03-23T06:37:09.322Z,87.78
2019-03-23T06:39:36.781Z,87.40
2019-03-23T06:42:05.364Z,87.77
2019-03-23T06:44:32.913Z,86.90
2019-03-23T06:47:00.385Z,86.72
2019-03-23T06:49:27.883Z,85.72
2019-03-23T06:51:55.340Z,85.21
2019-03-23T06:54:22.818Z,85.95
2019-03-23T06:56:50.293Z,85.19
2019-03-23T06:59:17.779Z,85.13
2019-03-23T07:01:45.235Z,84.83
2019-03-23T07:04:12.712Z,84.00
2019-03-23T07:06:40.192Z,83.93
2019-03-23T07:09:15.778Z,83.34
2019-03-23T07:11:35.201Z,82.82
2019-03-23T07:14:02.665Z,81.30
2019-03-23T07:16:30.122Z,81.30
2019-03-23T07:18:57.585Z,81.16
2019-03-23T07:21:25.030Z,82.44
2019-03-23T07:23:52.460Z,82.60
2019-03-23T07:26:19.942Z,82.93
2019-03-23T07:28:47.395Z,83.38
2019-03-23T07:31:14.872Z,83.33
2019-03-23T07:33:43.110Z,83.66
2019-03-23T07:36:10.578Z,83.40
2019-03-23T07:38:38.057Z,83.51
2019-03-23T07:41:05.561Z,84.22
2019-03-23T07:43:33.107Z,82.71
2019-03-23T07:46:00.546Z,82.74
2019-03-23T07:48:28.606Z,81.86
2019-03-23T07:50:57.833Z,81.17
2019-03-23T07:53:25.417Z,80.63
2019-03-23T07:55:52.843Z,80.30
2019-03-23T07:58:20.359Z,79.88
2019-03-23T08:00:47.808Z,79.20
2019-03-23T08:03:16.009Z,80.43
2019-03-23T08:05:43.863Z,80.09
2019-03-23T08:08:11.343Z,80.09
2019-03-23T08:10:38.829Z,80.02
2019-03-23T08:13:06.301Z,80.00
2019-03-23T08:15:33.771Z,79.77
2019-03-23T08:18:01.284Z,79.96
2019-03-23T08:20:28.797Z,79.75
2019-03-23T08:22:56.268Z,80.29
2019-03-23T08:25:23.758Z,80.59
2019-03-23T08:27:51.219Z,80.47
2019-03-23T08:30:18.690Z,80.06
2019-03-23T08:32:46.151Z,79.55
2019-03-23T08:35:14.249Z,78.89
2019-03-23T08:37:44.133Z,79.12
2019-03-23T08:40:11.796Z,79.20
2019-03-23T08:42:39.287Z,78.77
2019-03-23T08:45:06.797Z,78.66
2019-03-23T08:47:34.255Z,79.38
2019-03-23T08:50:02.314Z,78.85
2019-03-23T08:52:29.834Z,78.93
2019-03-23T08:54:57.329Z,78.90
2019-03-23T08:57:24.822Z,77.85
2019-03-23T08:59:52.309Z,78.33
2019-03-23T09:02:21.700Z,78.61
2019-03-23T09:04:47.290Z,77.68
2019-03-23T09:07:14.793Z,77.95
2019-03-23T09:09:42.271Z,76.99
2019-03-23T09:12:09.726Z,76.86
2019-03-23T09:14:37.242Z,77.32
2019-03-23T09:17:04.734Z,77.03
2019-03-23T09:19:32.172Z,76.68
2019-03-23T09:21:59.658Z,76.78
2019-03-23T09:24:27.119Z,75.77
2019-03-23T09:26:54.616Z,76.41
2019-03-23T09:29:22.104Z,77.16
2019-03-23T09:31:49.570Z,76.00
2019-03-23T09:34:17.053Z,75.57
2019-03-23T09:36:46.223Z,75.75
2019-03-23T09:39:13.790Z,76.33
2019-03-23T09:41:41.259Z,76.41
2019-03-23T09:44:08.726Z,76.37
2019-03-23T09:46:36.214Z,76.58
2019-03-23T09:49:04.335Z,77.08
2019-03-23T09:51:32.735Z,76.77
2019-03-23T09:54:00.187Z,75.63
2019-03-23T09:56:27.629Z,75.37
2019-03-23T09:58:55.094Z,75.37
2019-03-23T10:01:22.544Z,74.64
2019-03-23T10:03:50.031Z,74.77
2019-03-23T10:06:17.502Z,75.36
2019-03-23T10:08:46.539Z,74.84
2019-03-23T10:11:13.458Z,75.46
2019-03-23T10:13:40.928Z,75.86
2019-03-23T10:16:08.370Z,76.02
2019-03-23T10:18:35.824Z,75.76
2019-03-23T10:21:03.275Z,75.43
2019-03-23T10:23:31.242Z,75.14
2019-03-23T10:25:58.731Z,75.62
2019-03-23T10:28:26.202Z,76.37
2019-03-23T10:30:53.656Z,76.78
2019-03-23T10:33:21.118Z,75.50
2019-03-23T10:35:48.587Z,75.87
2019-03-23T10:38:16.550Z,75.10
2019-03-23T10:40:44.012Z,74.76
2019-03-23T10:43:11.512Z,74.19
2019-03-23T10:45:44.111Z,74.17
2019-03-23T10:48:06.455Z,73.79
2019-03-23T10:50:33.918Z,73.63
2019-03-23T10:53:01.399Z,72.84
2019-03-23T10:55:28.977Z,72.15
2019-03-23T10:57:57.410Z,72.51
2019-03-23T11:00:24.911Z,73.92
2019-03-23T11:02:52.388Z,72.61
2019-03-23T11:05:19.846Z,71.84
2019-03-23T11:07:47.305Z,71.95
2019-03-23T11:10:14.786Z,72.16
2019-03-23T11:12:42.233Z,72.70
2019-03-23T11:15:09.728Z,71.43
2019-03-23T11:17:37.253Z,71.27
2019-03-23T11:20:04.736Z,71.38
2019-03-23T11:22:32.228Z,70.58
2019-03-23T11:24:59.791Z,70.31
2019-03-23T11:27:27.278Z,70.96
2019-03-23T11:29:54.710Z,70.33
2019-03-23T11:32:23.092Z,69.86
2019-03-23T11:34:50.702Z,69.18
2019-03-23T11:37:18.264Z,68.57
2019-03-23T11:39:45.786Z,68.07
2019-03-23T11:42:13.302Z,67.46
2019-03-23T11:44:43.178Z,68.29
2019-03-23T11:47:10.775Z,69.27
2019-03-23T11:49:38.239Z,68.85
2019-03-23T11:52:05.714Z,68.41
2019-03-23T11:54:33.189Z,68.62
2019-03-23T11:57:00.973Z,68.21
2019-03-23T11:59:28.434Z,67.46
2019-03-23T12:01:55.943Z,66.87
2019-03-23T12:04:25.048Z,66.27
2019-03-23T12:06:51.005Z,66.04
2019-03-23T12:09:18.481Z,65.82
2019-03-23T12:11:45.950Z,65.66
2019-03-23T12:14:13.407Z,66.47
2019-03-23T12:16:40.921Z,66.04
2019-03-23T12:19:09.200Z,65.72
2019-03-23T12:21:36.750Z,65.54
2019-03-23T12:24:04.195Z,64.95
2019-03-23T12:26:31.683Z,65.17
2019-03-23T12:28:59.196Z,64.49
2019-03-23T12:31:26.670Z,64.32
2019-03-23T12:33:54.160Z,63.81
2019-03-23T12:36:21.604Z,65.05
2019-03-23T12:38:49.126Z,68.11
2019-03-23T12:41:23.068Z,65.48
2019-03-23T12:43:44.165Z,66.15
2019-03-23T12:46:35.085Z,65.95
2019-03-23T12:49:02.592Z,64.95
2019-03-23T12:51:30.100Z,65.54
2019-03-23T12:53:57.553Z,65.47
2019-03-23T12:56:25.078Z,65.24
2019-03-23T12:58:52.586Z,65.00
2019-03-23T13:01:20.045Z,64.59
2019-03-23T13:03:47.576Z,64.00
2019-03-23T13:06:15.086Z,63.71
2019-03-23T13:08:42.538Z,63.82
2019-03-23T13:11:10.051Z,63.83
2019-03-23T13:13:37.523Z,64.44
2019-03-23T13:16:05.150Z,64.09
2019-03-23T13:18:32.686Z,64.04
2019-03-23T13:21:00.145Z,65.03
2019-03-23T13:23:27.618Z,65.03
2019-03-23T13:25:55.067Z,64.89
2019-03-23T13:28:22.560Z,64.27
2019-03-23T13:30:49.991Z,64.13
2019-03-23T13:33:17.460Z,65.11
2019-03-23T13:35:44.909Z,64.22
2019-03-23T13:38:12.373Z,63.96
2019-03-23T13:40:39.862Z,63.73
2019-03-23T13:43:07.326Z,64.12
2019-03-23T13:45:42.359Z,63.86
2019-03-23T13:48:02.303Z,63.64
2019-03-23T13:50:29.778Z,62.90
2019-03-23T13:52:57.235Z,63.63
2019-03-23T13:55:27.242Z,63.99
2019-03-23T13:57:54.733Z,63.67
2019-03-23T14:00:22.205Z,63.33
2019-03-23T14:02:50.332Z,63.78
2019-03-23T14:05:17.783Z,64.41
2019-03-23T14:07:45.243Z,63.76
2019-03-23T14:10:12.729Z,63.09
2019-03-23T14:12:40.175Z,63.40
2019-03-23T14:15:07.653Z,62.88
2019-03-23T14:17:35.083Z,63.27
2019-03-23T14:20:02.579Z,63.33
2019-03-23T14:22:30.048Z,63.37
2019-03-23T14:24:57.508Z,63.09
2019-03-23T14:27:25.021Z,62.87
2019-03-23T14:29:52.490Z,62.64
2019-03-23T14:32:20.692Z,62.58
2019-03-23T14:34:48.148Z,63.00
2019-03-23T14:37:15.626Z,63.01
2019-03-23T14:39:43.090Z,63.42
2019-03-23T14:42:10.550Z,64.85
2019-03-23T14:44:38.014Z,64.16
2019-03-23T14:47:05.475Z,64.16
2019-03-23T14:49:35.004Z,63.81
2019-03-23T14:52:02.489Z,64.47
2019-03-23T14:54:29.927Z,64.77
2019-03-23T14:56:57.388Z,64.97
2019-03-23T14:59:24.841Z,65.20
2019-03-23T15:01:52.288Z,65.16
2019-03-23T15:06:53.483Z,65.04
2019-03-23T15:09:21.717Z,64.92
2019-03-23T15:11:50.547Z,64.88
2019-03-23T15:14:18.204Z,65.12
2019-03-23T15:16:45.639Z,64.68
2019-03-23T15:19:13.091Z,64.44
2019-03-23T15:21:40.585Z,64.80
2019-03-23T15:24:08.100Z,65.21
2019-03-23T15:26:35.538Z,64.98
2019-03-23T15:29:04.973Z,64.83
2019-03-23T15:31:32.533Z,65.51
2019-03-23T15:34:00.047Z,66.79
2019-03-23T15:36:27.523Z,66.10
2019-03-23T15:38:55.011Z,66.69
2019-03-23T15:41:22.450Z,67.25
2019-03-23T15:43:49.945Z,68.08
2019-03-23T15:46:17.406Z,67.62
2019-03-23T15:48:44.860Z,67.64
2019-03-23T15:51:12.406Z,66.32
2019-03-23T15:53:39.896Z,67.56
2019-03-23T15:56:07.388Z,66.46
2019-03-23T15:58:34.850Z,68.00
2019-03-23T16:01:02.332Z,68.50
2019-03-23T16:03:29.764Z,67.05
2019-03-23T16:05:57.237Z,67.18
2019-03-23T16:08:24.708Z,67.21
2019-03-23T16:10:52.820Z,67.18
2019-03-23T16:13:20.286Z,66.54
2019-03-23T16:15:48.283Z,67.31
2019-03-23T16:18:15.777Z,66.39
2019-03-23T16:20:43.260Z,66.45
2019-03-23T16:23:10.746Z,66.33
2019-03-23T16:25:38.199Z,68.43
2019-03-23T16:28:05.631Z,67.76
2019-03-23T16:30:33.120Z,67.48
2019-03-23T16:33:00.572Z,68.09
2019-03-23T16:35:28.028Z,67.23
2019-03-23T16:37:55.486Z,69.21
2019-03-23T16:40:23.343Z,69.94
2019-03-23T16:42:50.814Z,70.53
2019-03-23T16:45:18.309Z,70.73
2019-03-23T16:47:45.765Z,70.90
2019-03-23T16:50:13.286Z,70.94
2019-03-23T16:52:40.832Z,69.70
2019-03-23T16:55:08.302Z,71.48
2019-03-23T16:57:35.771Z,70.95
2019-03-23T17:00:03.240Z,70.58
2019-03-23T17:02:30.690Z,70.57
2019-03-23T17:04:58.182Z,71.21
2019-03-23T17:07:25.650Z,70.47
2019-03-23T17:09:53.845Z,69.64
2019-03-23T17:12:21.326Z,69.60
2019-03-23T17:14:48.794Z,69.50
2019-03-23T17:17:16.265Z,69.61
2019-03-23T17:19:43.775Z,69.24
2019-03-23T17:22:11.237Z,70.71
2019-03-23T17:24:38.697Z,69.02
2019-03-23T17:27:06.166Z,68.30
2019-03-23T17:29:33.610Z,68.30
2019-03-23T17:32:01.113Z,67.64
2019-03-23T17:34:28.588Z,67.49
2019-03-23T17:36:56.042Z,67.42
2019-03-23T17:39:24.517Z,67.03
2019-03-23T17:41:52.008Z,66.87
2019-03-23T17:44:19.502Z,67.09
2019-03-23T17:46:46.948Z,66.77
2019-03-23T17:49:15.447Z,67.15
2019-03-23T17:51:43.002Z,67.61
2019-03-23T17:54:10.483Z,67.38
2019-03-23T17:56:37.984Z,68.15
2019-03-23T17:59:05.439Z,67.96
2019-03-23T18:01:33.883Z,67.53
2019-03-23T18:04:01.883Z,67.58
2019-03-23T18:06:29.374Z,67.25
2019-03-23T18:08:56.889Z,66.99
2019-03-23T18:11:24.341Z,67.21
2019-03-23T18:13:51.859Z,67.09
2019-03-23T18:16:19.398Z,67.25
2019-03-23T18:18:46.942Z,67.23
2019-03-23T18:21:14.411Z,67.36
2019-03-23T18:23:41.861Z,67.56
2019-03-23T18:26:09.310Z,67.47
2019-03-23T18:28:36.794Z,67.36
2019-03-23T18:31:04.257Z,67.58
2019-03-23T18:33:31.726Z,67.83
2019-03-23T18:35:59.184Z,68.11
2019-03-23T18:38:26.666Z,67.94
2019-03-23T18:40:54.209Z,68.15
2019-03-23T18:43:27.322Z,68.27
2019-03-23T18:45:49.143Z,67.97
2019-03-23T18:48:16.594Z,68.38
2019-03-23T18:50:44.051Z,68.53
2019-03-23T18:53:11.509Z,68.89
2019-03-23T18:55:38.982Z,69.60
2019-03-23T18:58:06.469Z,69.48
2019-03-23T19:00:41.906Z,72.03
2019-03-23T19:03:09.374Z,69.89
2019-03-23T19:05:36.836Z,69.75
2019-03-23T19:08:04.364Z,70.67
2019-03-23T19:10:33.683Z,70.74
2019-03-23T19:13:01.240Z,71.56
2019-03-23T19:15:28.705Z,71.90
2019-03-23T19:17:56.174Z,72.35
2019-03-23T19:20:23.710Z,72.82
2019-03-23T19:22:51.143Z,73.37
2019-03-23T19:25:18.681Z,73.68
2019-03-23T19:27:46.112Z,74.47
2019-03-23T19:30:13.584Z,75.52
2019-03-23T19:32:41.058Z,74.83
2019-03-23T19:35:08.545Z,75.29
2019-03-23T19:37:35.989Z,74.93
2019-03-23T19:40:03.530Z,75.37
2019-03-23T19:42:31.086Z,75.57
2019-03-23T19:44:58.561Z,75.24
2019-03-23T19:47:26.018Z,75.18
2019-03-23T19:49:53.486Z,75.12
2019-03-23T19:52:20.935Z,75.41
2019-03-23T19:54:48.485Z,75.54
2019-03-23T19:57:16.037Z,75.67
2019-03-23T19:59:43.471Z,75.67
2019-03-23T20:02:11.017Z,75.88
2019-03-23T20:04:38.524Z,75.99
2019-03-23T20:07:05.997Z,75.99
2019-03-23T20:09:33.492Z,76.02
2019-03-23T20:12:01.011Z,76.61
2019-03-23T20:14:28.490Z,76.86
2019-03-23T20:16:55.986Z,76.92
2019-03-23T20:19:23.451Z,76.78
2019-03-23T20:21:51.790Z,77.05
2019-03-23T20:24:19.293Z,76.80
2019-03-23T20:26:46.727Z,76.76
2019-03-23T20:29:14.215Z,76.92
2019-03-23T20:31:41.709Z,77.22
2019-03-23T20:34:09.200Z,76.96
2019-03-23T20:36:36.680Z,76.91
2019-03-23T20:39:04.138Z,77.26
2019-03-23T20:41:31.634Z,76.96
2019-03-23T20:44:08.839Z,77.45
2019-03-23T20:46:26.581Z,77.17
2019-03-23T20:48:54.117Z,77.59
2019-03-23T20:51:21.586Z,77.34
2019-03-23T20:53:49.042Z,77.10
2019-03-23T20:56:16.578Z,77.63
2019-03-23T20:58:44.073Z,77.32
2019-03-23T21:01:11.531Z,77.40
2019-03-23T21:03:39.005Z,78.12
2019-03-23T21:06:06.505Z,78.83
2019-03-23T21:08:33.968Z,78.70
2019-03-23T21:11:01.489Z,78.08
2019-03-23T21:13:28.969Z,77.47
2019-03-23T21:15:56.399Z,77.86
2019-03-23T21:18:23.890Z,78.04
2019-03-23T21:20:51.429Z,77.62
2019-03-23T21:23:18.916Z,77.56
2019-03-23T21:25:46.427Z,77.78
2019-03-23T21:28:13.918Z,78.21
2019-03-23T21:30:41.376Z,77.58
2019-03-23T21:33:08.869Z,77.64
2019-03-23T21:35:37.129Z,77.43
2019-03-23T21:38:04.616Z,77.72
2019-03-23T21:40:32.161Z,78.16
2019-03-23T21:42:59.623Z,77.84
2019-03-23T21:45:27.098Z,77.78
2019-03-23T21:47:54.578Z,78.03
2019-03-23T21:50:22.019Z,78.01
2019-03-23T21:52:50.169Z,77.94
2019-03-23T21:55:17.752Z,78.03
2019-03-23T21:57:45.234Z,77.94
2019-03-23T22:00:12.819Z,78.10
2019-03-23T22:02:40.366Z,77.97
2019-03-23T22:05:08.378Z,77.65
2019-03-23T22:07:36.043Z,77.17
2019-03-23T22:10:03.531Z,77.07
2019-03-23T22:12:31.012Z,76.83
2019-03-23T22:14:58.483Z,76.65
2019-03-23T22:17:25.950Z,76.48
2019-03-23T22:19:53.439Z,76.33
2019-03-23T22:22:21.040Z,76.04
2019-03-23T22:24:48.516Z,75.88
2019-03-23T22:27:16.265Z,75.55
2019-03-23T22:29:43.803Z,75.35
2019-03-23T22:32:11.434Z,75.84
2019-03-23T22:34:39.570Z,75.47
2019-03-23T22:37:07.103Z,75.12
2019-03-23T22:39:34.582Z,74.73
2019-03-23T22:42:02.049Z,74.72
2019-03-23T22:44:29.510Z,74.51
2019-03-23T22:46:56.981Z,74.47
2019-03-23T22:49:24.451Z,74.37
2019-03-23T22:51:51.909Z,74.25
2019-03-23T22:54:19.412Z,74.03
2019-03-23T22:56:46.847Z,73.85
2019-03-23T22:59:15.400Z,73.68
2019-03-23T23:01:41.902Z,73.85
2019-03-23T23:04:09.646Z,73.62
2019-03-23T23:06:37.097Z,73.90
2019-03-23T23:09:04.557Z,73.63
2019-03-23T23:11:32.111Z,73.55
2019-03-23T23:13:59.589Z,73.59
2019-03-23T23:16:27.050Z,73.43
2019-03-23T23:18:54.538Z,73.51
2019-03-23T23:21:22.017Z,73.57
2019-03-23T23:23:49.574Z,73.68
2019-03-23T23:26:17.072Z,74.06
2019-03-23T23:28:44.735Z,73.52
2019-03-23T23:31:12.172Z,73.30
2019-03-23T23:33:39.683Z,73.37
2019-03-23T23:36:07.167Z,73.21
2019-03-23T23:38:34.619Z,73.11
2019-03-23T23:41:02.086Z,73.12
2019-03-23T23:43:29.533Z,72.83
2019-03-23T23:45:57.020Z,72.68
2019-03-23T23:48:24.472Z,72.49
2019-03-23T23:50:51.992Z,72.52
2019-03-23T23:53:19.459Z,72.50
2019-03-23T23:55:46.922Z,72.34
2019-03-23T23:58:14.777Z,72.99
